Time;durP1;ratioP1;P1;durP2;ratioP2;P2;SDS_P1;SDS_P2;PMS_P1;PMS_P2;Temp;Humidity;BMP_temperature;BMP_pressure;BME280_temperature;BME280_humidity;BME280_pressure;Samples;Min_cycle;Max_cycle;Signal;HPM_P1;HPM_P2
2023/07/01 00:01:28;;;;;;;4.60;4.30;;;18.40;99.90;;;;;;5091150;28;20181;-68
2023/07/01 00:03:54;;;;;;;5.63;5.33;;;18.40;99.90;;;;;;5090502;28;20177;-68
2023/07/01 00:06:19;;;;;;;5.17;4.77;;;18.40;99.90;;;;;;5090993;28;20205;-68
2023/07/01 00:08:45;;;;;;;5.00;4.33;;;18.40;99.90;;;;;;5090743;28;20182;-67
2023/07/01 00:11:11;;;;;;;4.50;4.10;;;18.40;99.90;;;;;;5090900;28;20209;-68
2023/07/01 00:13:36;;;;;;;4.80;4.50;;;18.40;99.90;;;;;;5090320;28;20195;-68
2023/07/01 00:16:04;;;;;;;4.70;4.40;;;18.50;99.90;;;;;;5090504;28;20303;-68
2023/07/01 00:18:29;;;;;;;9.77;4.50;;;18.50;99.90;;;;;;5093894;28;20170;-68
2023/07/01 00:20:55;;;;;;;4.40;4.10;;;18.50;99.90;;;;;;5094658;28;20173;-68
2023/07/01 00:23:21;;;;;;;4.90;4.50;;;18.40;99.90;;;;;;5094246;28;20205;-68
2023/07/01 00:25:47;;;;;;;4.70;4.30;;;18.40;99.90;;;;;;5094062;28;20240;-68
2023/07/01 00:28:13;;;;;;;5.93;5.23;;;18.40;99.90;;;;;;5094244;28;20617;-68
2023/07/01 00:30:38;;;;;;;4.80;4.40;;;18.40;99.90;;;;;;5095186;28;20173;-67
2023/07/01 00:33:05;;;;;;;5.43;4.70;;;18.40;99.90;;;;;;5094298;28;20734;-67
2023/07/01 00:35:31;;;;;;;4.83;4.37;;;18.40;99.90;;;;;;5093975;28;20566;-66
2023/07/01 00:37:57;;;;;;;5.87;5.27;;;18.40;99.90;;;;;;5094048;28;20260;-67
2023/07/01 00:40:23;;;;;;;4.90;4.60;;;18.40;99.90;;;;;;5094192;28;20277;-67
2023/07/01 00:42:48;;;;;;;5.57;5.20;;;18.40;99.90;;;;;;5093873;28;20197;-67
2023/07/01 00:45:14;;;;;;;5.00;4.70;;;18.50;99.90;;;;;;5093947;28;20209;-67
2023/07/01 00:47:40;;;;;;;7.50;7.00;;;18.50;99.90;;;;;;5093691;28;20173;-67
2023/07/01 00:50:11;;;;;;;5.87;5.50;;;18.50;99.90;;;;;;5093986;28;20548;-67
2023/07/01 00:52:41;;;;;;;5.30;4.80;;;18.40;99.90;;;;;;5093848;28;20169;-67
2023/07/01 00:55:09;;;;;;;6.23;5.83;;;18.40;99.90;;;;;;5093828;28;20192;-67
2023/07/01 00:57:35;;;;;;;4.97;4.57;;;18.40;99.90;;;;;;5093963;28;20218;-67
2023/07/01 01:00:04;;;;;;;4.77;4.50;;;18.40;99.90;;;;;;5093659;28;20174;-67
2023/07/01 01:02:34;;;;;;;4.33;4.00;;;18.30;99.90;;;;;;5093319;28;20239;-67
2023/07/01 01:05:10;;;;;;;4.73;4.33;;;18.30;99.90;;;;;;5093396;28;20190;-67
2023/07/01 01:07:52;;;;;;;4.90;4.60;;;18.30;99.90;;;;;;5093591;28;20219;-67
2023/07/01 01:10:22;;;;;;;5.53;5.13;;;18.40;99.90;;;;;;5093709;28;20648;-67
2023/07/01 01:12:53;;;;;;;6.20;5.80;;;18.30;99.90;;;;;;5093368;28;20547;-67
2023/07/01 01:15:19;;;;;;;6.57;4.73;;;18.30;99.90;;;;;;5093400;28;20195;-67
2023/07/01 01:17:45;;;;;;;6.10;5.70;;;18.30;99.90;;;;;;5093283;28;20264;-67
2023/07/01 01:20:16;;;;;;;5.90;5.30;;;18.30;99.90;;;;;;5093445;28;20299;-67
2023/07/01 01:23:07;;;;;;;4.70;4.40;;;18.30;99.90;;;;;;5093062;28;20172;-67
2023/07/01 01:25:57;;;;;;;5.70;4.63;;;18.30;99.90;;;;;;5093358;28;20626;-67
2023/07/01 01:28:23;;;;;;;5.87;5.47;;;18.40;99.90;;;;;;5092615;28;20219;-67
2023/07/01 01:30:48;;;;;;;6.17;5.67;;;18.30;99.90;;;;;;5092289;28;20178;-67
2023/07/01 01:33:14;;;;;;;6.10;5.70;;;18.30;99.90;;;;;;5092506;28;20251;-67
2023/07/01 01:35:39;;;;;;;5.10;4.80;;;18.30;99.90;;;;;;5092969;28;20569;-67
2023/07/01 01:38:09;;;;;;;4.67;4.37;;;18.30;99.90;;;;;;5092982;28;20185;-67
2023/07/01 01:40:40;;;;;;;5.37;4.90;;;18.30;99.90;;;;;;5093042;28;20184;-67
2023/07/01 01:43:37;;;;;;;6.27;5.77;;;18.30;99.90;;;;;;5092698;28;20632;-67
2023/07/01 01:46:05;;;;;;;5.00;4.70;;;18.30;99.90;;;;;;5074220;28;20220;-67
2023/07/01 01:48:31;;;;;;;5.50;5.10;;;18.30;99.90;;;;;;5092909;28;20585;-66
2023/07/01 01:50:58;;;;;;;5.07;4.67;;;18.20;99.90;;;;;;5092367;28;20264;-66
2023/07/01 01:53:27;;;;;;;5.60;5.20;;;18.20;99.90;;;;;;5092497;28;20173;-67
2023/07/01 01:55:54;;;;;;;5.03;4.63;;;18.20;99.90;;;;;;5092664;28;20201;-66
2023/07/01 01:58:20;;;;;;;5.93;5.40;;;18.20;99.90;;;;;;5092793;28;20174;-67
2023/07/01 02:00:46;;;;;;;6.20;5.80;;;18.20;99.90;;;;;;5092762;28;20208;-67
2023/07/01 02:03:12;;;;;;;6.10;5.70;;;18.10;99.90;;;;;;5092447;28;20230;-66
2023/07/01 02:05:37;;;;;;;6.43;5.87;;;18.10;99.90;;;;;;5092276;28;20726;-67
2023/07/01 02:08:04;;;;;;;7.33;6.70;;;18.10;99.90;;;;;;5091945;28;20413;-67
2023/07/01 02:10:30;;;;;;;4.80;4.50;;;18.10;99.90;;;;;;5092494;28;20256;-67
2023/07/01 02:12:55;;;;;;;4.57;4.27;;;18.00;99.90;;;;;;5092056;28;20199;-67
2023/07/01 02:15:21;;;;;;;5.03;4.53;;;18.00;99.90;;;;;;5092097;28;20559;-67
2023/07/01 02:17:47;;;;;;;5.10;4.73;;;18.00;99.90;;;;;;5092045;28;20636;-67
2023/07/01 02:20:13;;;;;;;5.73;5.33;;;18.00;99.90;;;;;;5092373;28;20193;-67
2023/07/01 02:22:38;;;;;;;10.60;9.80;;;18.00;99.90;;;;;;5091933;28;20205;-67
2023/07/01 02:25:04;;;;;;;9.17;8.70;;;18.00;99.90;;;;;;5092173;28;20181;-67
2023/07/01 02:27:31;;;;;;;6.93;6.33;;;17.90;99.90;;;;;;5092415;28;20174;-67
2023/07/01 02:29:57;;;;;;;5.67;5.10;;;17.90;99.90;;;;;;5091834;28;20173;-67
2023/07/01 02:32:23;;;;;;;9.30;8.80;;;17.90;99.90;;;;;;5091537;28;20188;-71
2023/07/01 02:34:49;;;;;;;15.70;14.73;;;17.90;99.90;;;;;;5092893;28;20189;-69
2023/07/01 02:37:15;;;;;;;8.00;7.23;;;17.90;99.90;;;;;;5092278;28;20185;-69
2023/07/01 02:39:40;;;;;;;6.33;5.77;;;17.90;99.90;;;;;;5092775;28;20178;-72
2023/07/01 02:42:06;;;;;;;9.70;9.03;;;17.90;99.90;;;;;;5092845;28;20191;-73
2023/07/01 02:44:32;;;;;;;9.33;8.70;;;17.90;99.90;;;;;;5092808;28;20218;-71
2023/07/01 02:46:57;;;;;;;10.57;9.97;;;17.90;99.90;;;;;;5092967;28;20212;-73
2023/07/01 02:49:23;;;;;;;6.73;6.33;;;17.90;99.90;;;;;;5092757;28;20181;-72
2023/07/01 02:51:48;;;;;;;6.13;5.67;;;17.90;99.90;;;;;;5092565;28;20177;-70
2023/07/01 02:54:14;;;;;;;6.77;6.37;;;17.90;99.90;;;;;;5092647;28;20197;-70
2023/07/01 02:56:40;;;;;;;7.93;7.23;;;18.00;99.90;;;;;;5092890;28;20718;-71
2023/07/01 02:59:05;;;;;;;5.87;5.40;;;18.00;99.90;;;;;;5092817;28;20177;-72
2023/07/01 03:01:31;;;;;;;5.90;5.30;;;18.00;99.90;;;;;;5093257;28;20186;-72
2023/07/01 03:03:56;;;;;;;6.57;6.07;;;18.10;99.90;;;;;;5091992;28;20261;-73
2023/07/01 03:06:22;;;;;;;5.90;5.50;;;18.10;99.90;;;;;;5092594;28;20262;-73
2023/07/01 03:08:48;;;;;;;6.50;5.50;;;18.10;99.90;;;;;;5092683;28;20173;-71
2023/07/01 03:11:13;;;;;;;7.23;5.00;;;18.10;99.90;;;;;;5092934;28;20176;-71
2023/07/01 03:13:39;;;;;;;5.07;4.70;;;18.10;99.90;;;;;;5092281;28;20541;-70
2023/07/01 03:16:06;;;;;;;5.03;4.73;;;18.10;99.90;;;;;;5092257;28;20211;-74
2023/07/01 03:18:33;;;;;;;5.03;4.63;;;18.20;99.90;;;;;;5092963;28;20174;-69
2023/07/01 03:21:00;;;;;;;4.63;4.20;;;18.20;99.90;;;;;;5092555;28;20181;-73
2023/07/01 03:23:27;;;;;;;6.00;4.30;;;18.20;99.90;;;;;;5092845;28;20525;-73
2023/07/01 03:25:53;;;;;;;4.80;4.40;;;18.20;99.90;;;;;;5092381;28;20288;-71
2023/07/01 03:28:18;;;;;;;4.50;4.20;;;18.20;99.90;;;;;;5092707;28;20208;-70
2023/07/01 03:30:44;;;;;;;8.20;4.23;;;18.20;99.90;;;;;;5074476;28;20285;-69
2023/07/01 03:33:12;;;;;;;4.70;4.40;;;18.20;99.90;;;;;;5091552;28;20174;-71
2023/07/01 03:35:38;;;;;;;4.80;4.50;;;18.10;99.90;;;;;;5092538;28;20753;-70
2023/07/01 03:38:04;;;;;;;6.30;5.73;;;18.10;99.90;;;;;;5092298;28;20177;-69
2023/07/01 03:40:29;;;;;;;4.70;4.30;;;18.10;99.90;;;;;;5092653;28;20579;-69
2023/07/01 03:42:55;;;;;;;5.53;5.13;;;18.10;99.90;;;;;;5091904;28;20220;-69
2023/07/01 03:45:21;;;;;;;5.43;4.93;;;18.10;99.90;;;;;;5092161;28;20213;-69
2023/07/01 03:47:46;;;;;;;5.80;5.27;;;18.00;99.90;;;;;;5092319;28;20616;-73
2023/07/01 03:50:14;;;;;;;6.03;5.53;;;18.00;99.90;;;;;;5092463;28;20173;-72
2023/07/01 03:52:41;;;;;;;6.10;5.53;;;18.00;99.90;;;;;;5094170;28;20181;-71
2023/07/01 03:55:11;;;;;;;5.87;5.50;;;18.00;99.90;;;;;;5096162;28;20228;-71
2023/07/01 03:57:37;;;;;;;4.90;4.60;;;18.00;99.90;;;;;;5096351;28;20541;-69
2023/07/01 04:00:19;;;;;;;6.60;5.10;;;18.00;99.90;;;;;;5095705;28;20452;-70
2023/07/01 04:02:49;;;;;;;6.27;5.87;;;18.00;99.90;;;;;;5074476;28;20274;-72
2023/07/01 04:05:15;;;;;;;7.13;6.43;;;18.00;99.90;;;;;;5075770;28;20642;-71
2023/07/01 04:07:42;;;;;;;5.70;5.13;;;18.00;99.90;;;;;;5075681;28;20201;-70
2023/07/01 04:10:10;;;;;;;5.53;5.03;;;18.00;99.90;;;;;;5075669;28;20173;-73
2023/07/01 04:12:37;;;;;;;5.13;4.83;;;18.00;99.90;;;;;;5077541;28;20173;-69
2023/07/01 04:15:09;;;;;;;7.37;6.87;;;18.00;99.90;;;;;;5078017;28;20216;-73
2023/07/01 04:17:35;;;;;;;6.90;6.40;;;18.00;99.90;;;;;;5095699;28;20165;-66
2023/07/01 04:20:03;;;;;;;7.83;6.70;;;18.00;99.90;;;;;;5094330;28;20169;-66
2023/07/01 04:22:28;;;;;;;6.73;6.23;;;18.00;99.90;;;;;;5094345;28;20161;-66
2023/07/01 04:24:54;;;;;;;6.37;5.87;;;18.00;99.90;;;;;;5094218;28;20335;-67
2023/07/01 04:27:19;;;;;;;6.37;5.97;;;18.00;99.90;;;;;;5094364;28;20272;-66
2023/07/01 04:29:45;;;;;;;5.30;4.90;;;18.00;99.90;;;;;;5094229;28;20170;-67
2023/07/01 04:32:11;;;;;;;5.10;4.77;;;18.10;99.90;;;;;;5093559;28;20256;-66
2023/07/01 04:34:36;;;;;;;4.53;4.23;;;18.10;99.90;;;;;;5094017;28;20721;-67
2023/07/01 04:37:02;;;;;;;5.00;4.60;;;18.20;99.90;;;;;;5094071;28;20173;-67
2023/07/01 04:39:27;;;;;;;5.23;4.73;;;18.20;99.90;;;;;;5093979;28;20181;-67
2023/07/01 04:41:53;;;;;;;5.40;4.90;;;18.20;99.90;;;;;;5093768;28;20652;-67
2023/07/01 04:44:19;;;;;;;5.30;4.80;;;18.30;99.90;;;;;;5093797;28;20288;-67
2023/07/01 04:46:44;;;;;;;7.23;4.83;;;18.30;99.90;;;;;;5093965;28;20610;-67
2023/07/01 04:49:10;;;;;;;4.40;4.10;;;18.40;99.90;;;;;;5093942;28;20162;-67
2023/07/01 04:51:36;;;;;;;5.40;4.90;;;18.50;99.90;;;;;;5075953;28;20239;-67
2023/07/01 04:54:04;;;;;;;6.03;4.83;;;18.50;99.90;;;;;;5093253;28;20269;-67
2023/07/01 04:56:30;;;;;;;4.93;4.43;;;18.60;99.90;;;;;;5094060;28;20169;-67
2023/07/01 04:58:55;;;;;;;4.60;4.20;;;18.60;99.90;;;;;;5093752;28;20170;-67
2023/07/01 05:01:21;;;;;;;4.10;3.80;;;18.60;99.90;;;;;;5093823;28;20177;-67
2023/07/01 05:03:46;;;;;;;4.93;4.40;;;18.60;99.90;;;;;;5093162;28;20193;-67
2023/07/01 05:06:12;;;;;;;4.80;4.30;;;18.70;99.90;;;;;;5093408;28;20205;-67
2023/07/01 05:08:38;;;;;;;5.40;4.90;;;18.80;99.90;;;;;;5093703;28;20528;-67
2023/07/01 05:11:03;;;;;;;5.00;4.70;;;18.80;99.90;;;;;;5093037;28;20177;-67
2023/07/01 05:13:29;;;;;;;6.17;5.57;;;18.80;99.90;;;;;;5093321;28;20173;-67
2023/07/01 05:15:55;;;;;;;6.13;5.63;;;18.80;99.90;;;;;;5093215;28;20220;-67
2023/07/01 05:18:21;;;;;;;5.77;5.37;;;18.80;99.90;;;;;;5093653;28;20166;-67
2023/07/01 05:20:46;;;;;;;6.70;6.23;;;18.80;99.90;;;;;;5093851;28;20165;-67
2023/07/01 05:23:12;;;;;;;5.23;4.80;;;18.80;99.90;;;;;;5093245;28;20231;-67
2023/07/01 05:25:38;;;;;;;5.77;5.17;;;18.80;99.90;;;;;;5093374;28;20272;-67
2023/07/01 05:28:03;;;;;;;6.47;5.80;;;18.90;99.90;;;;;;5093267;28;20169;-67
2023/07/01 05:30:29;;;;;;;5.40;4.90;;;18.90;99.90;;;;;;5094056;28;20200;-67
2023/07/01 05:32:55;;;;;;;5.63;5.23;;;18.90;99.90;;;;;;5093254;28;20170;-67
2023/07/01 05:35:20;;;;;;;6.40;5.13;;;19.00;99.90;;;;;;5093531;28;20190;-67
2023/07/01 05:37:46;;;;;;;5.23;4.53;;;19.10;99.90;;;;;;5093329;28;20204;-67
2023/07/01 05:40:12;;;;;;;4.80;4.40;;;19.20;99.90;;;;;;5093142;28;20207;-67
2023/07/01 05:42:38;;;;;;;6.23;5.83;;;19.30;99.90;;;;;;5093099;28;20165;-67
2023/07/01 05:45:04;;;;;;;5.87;4.57;;;19.50;99.90;;;;;;5092941;28;20201;-67
2023/07/01 05:47:30;;;;;;;5.50;4.43;;;19.70;99.90;;;;;;5092911;28;20189;-67
2023/07/01 05:49:56;;;;;;;486.67;451.57;;;19.90;99.90;;;;;;5092542;28;20206;-67
2023/07/01 05:52:22;;;;;;;932.67;872.27;;;20.00;99.90;;;;;;5092683;28;20165;-67
2023/07/01 05:54:47;;;;;;;1023.97;952.80;;;20.10;99.90;;;;;;5092143;28;20193;-66
2023/07/01 05:57:14;;;;;;;1055.50;977.47;;;20.10;99.90;;;;;;5092686;28;20717;-67
2023/07/01 05:59:40;;;;;;;1999.90;999.90;;;20.10;99.90;;;;;;5091308;28;20675;-67
2023/07/01 06:02:07;;;;;;;1999.90;999.90;;;20.10;99.90;;;;;;5091713;28;20181;-67
2023/07/01 06:04:33;;;;;;;1999.90;999.90;;;20.00;99.90;;;;;;5092139;28;20197;-67
2023/07/01 06:06:59;;;;;;;1999.90;999.90;;;20.00;99.90;;;;;;5092137;28;20571;-68
2023/07/01 06:09:24;;;;;;;1999.90;999.90;;;20.00;99.90;;;;;;5092472;28;20178;-67
2023/07/01 06:11:50;;;;;;;1999.90;999.90;;;19.90;99.90;;;;;;5092090;28;20272;-67
2023/07/01 06:14:16;;;;;;;1999.90;999.90;;;19.70;99.90;;;;;;5091823;28;20182;-67
2023/07/01 06:16:41;;;;;;;1999.90;999.90;;;19.50;99.90;;;;;;5091866;28;20169;-67
2023/07/01 06:19:07;;;;;;;1509.40;999.90;;;19.20;99.90;;;;;;5092106;28;20223;-67
2023/07/01 06:21:33;;;;;;;1256.23;999.90;;;19.00;99.90;;;;;;5092143;28;20521;-67
2023/07/01 06:23:59;;;;;;;1210.90;999.90;;;18.90;99.90;;;;;;5091490;28;20176;-67
2023/07/01 06:26:24;;;;;;;475.57;453.23;;;18.70;99.90;;;;;;5092009;28;20285;-67
2023/07/01 06:28:50;;;;;;;29.60;28.13;;;18.50;99.90;;;;;;5091620;28;20173;-67
2023/07/01 06:31:15;;;;;;;95.87;91.57;;;18.30;99.90;;;;;;5092007;28;20181;-67
2023/07/01 06:33:41;;;;;;;466.63;445.20;;;18.10;99.90;;;;;;5091502;28;20166;-67
2023/07/01 06:36:07;;;;;;;888.23;833.03;;;18.00;99.90;;;;;;5091748;28;20185;-68
2023/07/01 06:38:33;;;;;;;1096.43;999.90;;;17.90;99.90;;;;;;5091886;28;20201;-67
2023/07/01 06:40:58;;;;;;;1999.90;999.90;;;17.80;99.90;;;;;;5091706;28;20199;-68
2023/07/01 06:43:24;;;;;;;1285.67;999.90;;;17.60;99.90;;;;;;5091752;28;20182;-68
2023/07/01 06:45:50;;;;;;;16.90;15.50;;;17.50;99.90;;;;;;5091701;28;20205;-68
2023/07/01 06:48:15;;;;;;;955.57;892.40;;;17.50;99.90;;;;;;5091850;28;20218;-68
2023/07/01 06:50:41;;;;;;;1360.27;999.90;;;17.40;99.90;;;;;;5091749;28;20165;-68
2023/07/01 06:53:07;;;;;;;1999.90;999.90;;;17.30;99.90;;;;;;5091494;28;20165;-68
2023/07/01 06:55:32;;;;;;;1399.90;999.90;;;17.40;99.90;;;;;;5091267;28;20657;-68
2023/07/01 06:58:01;;;;;;;1140.33;999.90;;;17.50;99.90;;;;;;5091352;28;20192;-67
2023/07/01 07:00:28;;;;;;;133.10;126.13;;;17.70;99.90;;;;;;5091751;28;20180;-69
2023/07/01 07:02:54;;;;;;;56.77;53.97;;;17.80;99.90;;;;;;5091427;28;20173;-69
2023/07/01 07:05:19;;;;;;;406.93;388.90;;;18.00;99.90;;;;;;5091424;28;20272;-69
2023/07/01 07:07:45;;;;;;;616.97;584.60;;;18.10;99.90;;;;;;5091067;28;20173;-69
2023/07/01 07:10:11;;;;;;;733.63;691.57;;;18.10;99.90;;;;;;5091259;28;20162;-69
2023/07/01 07:12:36;;;;;;;884.50;829.37;;;18.10;99.90;;;;;;5091447;28;20162;-69
2023/07/01 07:15:02;;;;;;;980.57;915.47;;;18.00;99.90;;;;;;5091165;28;20278;-69
2023/07/01 07:17:28;;;;;;;1043.47;969.03;;;17.90;99.90;;;;;;5091731;28;20173;-69
2023/07/01 07:19:54;;;;;;;1140.10;999.90;;;17.80;99.90;;;;;;5091265;28;20177;-69
2023/07/01 07:22:19;;;;;;;1193.67;999.90;;;17.80;99.90;;;;;;5091008;28;20590;-69
2023/07/01 07:24:45;;;;;;;1250.80;999.90;;;17.80;99.90;;;;;;5091408;28;20691;-69
2023/07/01 07:27:10;;;;;;;1294.67;999.90;;;17.80;99.90;;;;;;5091313;28;20193;-69
2023/07/01 07:29:36;;;;;;;1327.93;999.90;;;17.80;99.90;;;;;;5095300;28;20538;-69
2023/07/01 07:32:02;;;;;;;1343.83;999.90;;;17.80;99.90;;;;;;5095155;28;20177;-69
2023/07/01 07:34:28;;;;;;;1345.90;999.90;;;17.90;99.90;;;;;;5095184;28;20272;-69
2023/07/01 07:36:54;;;;;;;1343.63;999.90;;;17.90;99.90;;;;;;5095290;28;20201;-69
2023/07/01 07:39:19;;;;;;;1354.73;999.90;;;17.80;99.90;;;;;;5095370;28;20173;-69
2023/07/01 07:41:45;;;;;;;1999.90;999.90;;;17.80;99.90;;;;;;5095261;28;20177;-69
2023/07/01 07:44:12;;;;;;;1999.90;999.90;;;17.70;99.90;;;;;;5094235;28;20610;-69
2023/07/01 07:46:38;;;;;;;1999.90;999.90;;;17.70;99.90;;;;;;5095227;28;20201;-69
2023/07/01 07:49:04;;;;;;;1999.90;999.90;;;17.60;99.90;;;;;;5095124;28;20169;-69
2023/07/01 07:51:31;;;;;;;1999.90;999.90;;;17.60;99.90;;;;;;5094963;28;20234;-69
2023/07/01 07:53:56;;;;;;;1999.90;999.90;;;17.60;99.90;;;;;;5094440;28;20633;-69
2023/07/01 07:56:22;;;;;;;1999.90;999.90;;;17.60;99.90;;;;;;5094976;28;20177;-69
2023/07/01 07:58:48;;;;;;;1999.90;999.90;;;17.60;99.90;;;;;;5094592;28;20173;-69
2023/07/01 08:01:14;;;;;;;1999.90;999.90;;;17.70;99.90;;;;;;5093228;28;20200;-69
2023/07/01 08:03:40;;;;;;;1999.90;999.90;;;17.70;99.90;;;;;;5094900;28;20173;-69
2023/07/01 08:06:06;;;;;;;1999.90;999.90;;;17.70;99.90;;;;;;5094515;28;20213;-69
2023/07/01 08:08:32;;;;;;;1999.90;999.90;;;17.70;99.90;;;;;;5094092;28;20200;-69
2023/07/01 08:10:59;;;;;;;1999.90;999.90;;;17.70;99.90;;;;;;5094708;28;20169;-69
2023/07/01 08:13:25;;;;;;;1999.90;999.90;;;17.70;99.90;;;;;;5094222;28;20710;-69
2023/07/01 08:15:51;;;;;;;1999.90;999.90;;;17.70;99.90;;;;;;5094697;28;20211;-69
2023/07/01 08:18:17;;;;;;;1999.90;999.90;;;17.70;99.90;;;;;;5094659;28;20658;-69
2023/07/01 08:20:46;;;;;;;1999.90;999.90;;;17.70;99.90;;;;;;5094330;28;20185;-69
2023/07/01 08:23:13;;;;;;;1999.90;999.90;;;17.80;99.90;;;;;;5076000;28;20177;-69
2023/07/01 08:25:40;;;;;;;1999.90;999.90;;;17.80;99.90;;;;;;5094872;28;20197;-69
2023/07/01 08:28:06;;;;;;;1999.90;999.90;;;17.80;99.90;;;;;;5094847;28;20172;-69
2023/07/01 08:30:31;;;;;;;1999.90;999.90;;;17.90;99.90;;;;;;5094415;28;20158;-69
2023/07/01 08:32:57;;;;;;;1630.07;999.90;;;17.90;99.90;;;;;;5092423;28;20177;-69
2023/07/01 08:35:23;;;;;;;1728.10;999.90;;;17.90;99.90;;;;;;5094258;28;20265;-69
2023/07/01 08:37:48;;;;;;;1752.03;999.90;;;18.00;99.90;;;;;;5092763;28;20265;-69
2023/07/01 08:40:14;;;;;;;1730.87;999.90;;;18.00;99.90;;;;;;5093962;28;20177;-69
2023/07/01 08:42:48;;;;;;;1692.10;999.90;;;18.10;99.90;;;;;;5093976;28;20169;-69
2023/07/01 08:45:14;;;;;;;1682.33;999.90;;;18.30;99.90;;;;;;5113228;22;20239;-88
2023/07/01 08:47:40;;;;;;;1641.97;999.90;;;18.40;99.90;;;;;;5122091;28;20250;-88
2023/07/01 08:50:09;;;;;;;1658.13;999.90;;;18.60;99.90;;;;;;5104978;27;20180;-85
2023/07/01 08:52:47;;;;;;;1631.13;999.90;;;18.90;99.90;;;;;;5105691;28;20223;-87
2023/07/01 08:55:13;;;;;;;1600.87;999.90;;;19.00;99.90;;;;;;5120680;28;20238;-87
2023/07/01 08:57:39;;;;;;;1540.87;999.90;;;19.10;99.90;;;;;;5119535;28;20274;-87
2023/07/01 09:00:07;;;;;;;1515.97;999.90;;;19.30;99.90;;;;;;5120719;28;20264;-86
2023/07/01 09:02:33;;;;;;;1460.97;999.90;;;19.40;99.90;;;;;;5114272;28;20210;-88
2023/07/01 09:04:59;;;;;;;1999.90;999.90;;;19.60;99.90;;;;;;5080598;28;20181;-87
2023/07/01 09:07:25;;;;;;;1999.90;999.90;;;19.60;99.90;;;;;;5084321;28;20633;-87
2023/07/01 09:09:51;;;;;;;1999.90;999.90;;;19.60;99.90;;;;;;5118511;28;20186;-85
2023/07/01 09:12:17;;;;;;;1999.90;999.90;;;19.40;99.90;;;;;;5102892;28;20179;-82
2023/07/01 09:15:04;;;;;;;1382.37;999.90;;;19.20;99.90;;;;;;5095969;28;20196;-88
2023/07/01 09:17:35;;;;;;;1396.93;999.90;;;18.90;99.90;;;;;;5083366;28;20237;-88
2023/07/01 09:20:06;;;;;;;1371.30;999.90;;;18.80;99.90;;;;;;5068631;28;20193;-88
2023/07/01 09:22:35;;;;;;;1349.63;999.90;;;18.80;99.90;;;;;;5083885;28;20204;-88
2023/07/01 09:25:01;;;;;;;1346.50;999.90;;;18.80;99.90;;;;;;5101786;28;20178;-88
2023/07/01 09:27:48;;;;;;;1311.10;999.90;;;18.70;99.90;;;;;;5084052;28;20282;-88
2023/07/01 09:30:39;;;;;;;1276.03;999.90;;;18.50;99.90;;;;;;5087264;28;20189;-87
2023/07/01 09:33:13;;;;;;;1213.57;999.90;;;18.40;99.90;;;;;;5084369;28;20196;-87
2023/07/01 09:35:41;;;;;;;1178.47;999.90;;;18.40;99.90;;;;;;5088622;28;20201;-88
2023/07/01 09:38:07;;;;;;;1203.90;999.90;;;18.50;99.90;;;;;;5081414;28;20180;-88
2023/07/01 09:40:33;;;;;;;1128.13;999.90;;;18.50;99.90;;;;;;5101538;28;20824;-89
2023/07/01 09:42:59;;;;;;;1088.77;999.90;;;18.50;99.90;;;;;;5082409;28;20177;-89
2023/07/01 09:45:24;;;;;;;1049.67;974.17;;;18.60;99.90;;;;;;5081911;28;20192;-89
2023/07/01 09:47:54;;;;;;;937.40;876.13;;;18.70;99.90;;;;;;5080938;28;20372;-88
2023/07/01 09:50:29;;;;;;;849.00;796.60;;;18.70;99.90;;;;;;5078904;28;20220;-87
2023/07/01 09:52:55;;;;;;;694.10;655.47;;;18.70;99.90;;;;;;5079475;28;20177;-86
2023/07/01 09:55:21;;;;;;;444.10;424.07;;;18.70;99.90;;;;;;5079910;28;20258;-88
2023/07/01 09:57:47;;;;;;;380.13;363.77;;;18.70;99.90;;;;;;5098915;28;20503;-86
2023/07/01 10:00:15;;;;;;;74.57;71.33;;;18.60;99.90;;;;;;5079584;28;20190;-87
2023/07/01 10:02:44;;;;;;;17.20;16.40;;;18.60;99.90;;;;;;5118766;28;20539;-86
2023/07/01 10:05:10;;;;;;;15.97;15.27;;;18.70;99.90;;;;;;5120722;28;20217;-87
2023/07/01 10:07:36;;;;;;;105.63;101.13;;;18.90;99.90;;;;;;5119364;28;20272;-88
2023/07/01 10:10:02;;;;;;;285.87;273.87;;;19.10;99.90;;;;;;5097625;28;20231;-89
2023/07/01 10:12:30;;;;;;;501.43;477.67;;;19.30;99.90;;;;;;5098124;28;20169;-89
2023/07/01 10:14:58;;;;;;;657.53;622.40;;;19.30;99.90;;;;;;5098162;28;20267;-89
2023/07/01 10:17:47;;;;;;;815.67;766.67;;;19.40;99.90;;;;;;5097611;28;20181;-89
2023/07/01 10:20:33;;;;;;;1008.53;938.17;;;19.40;99.90;;;;;;5093354;28;20228;-89
2023/07/01 10:23:03;;;;;;;1076.70;995.87;;;19.50;99.90;;;;;;5097814;28;20550;-89
2023/07/01 10:25:37;;;;;;;1208.43;999.90;;;19.50;99.90;;;;;;5098549;28;20177;-89
2023/07/01 10:28:11;;;;;;;1259.47;999.90;;;19.60;99.90;;;;;;5098407;28;20180;-87
2023/07/01 10:30:43;;;;;;;1203.93;999.90;;;19.60;99.90;;;;;;5096935;28;20196;-87
2023/07/01 10:33:27;;;;;;;1292.33;999.90;;;19.60;99.90;;;;;;5097768;28;20173;-87
2023/07/01 10:36:07;;;;;;;1234.57;999.90;;;19.70;99.90;;;;;;5098003;28;20208;-87
2023/07/01 10:38:34;;;;;;;1307.60;999.90;;;19.60;99.90;;;;;;5112026;28;20177;-88
2023/07/01 10:41:00;;;;;;;1414.63;999.90;;;19.60;99.90;;;;;;5098176;28;20697;-86
2023/07/01 10:43:29;;;;;;;1562.63;999.90;;;19.60;99.90;;;;;;5095660;28;20176;-86
2023/07/01 10:46:13;;;;;;;1582.37;999.90;;;19.60;99.90;;;;;;5113993;28;20208;-86
2023/07/01 10:48:42;;;;;;;1549.57;999.90;;;19.60;99.90;;;;;;5114278;28;20205;-87
2023/07/01 10:51:12;;;;;;;1592.53;999.90;;;19.60;99.90;;;;;;5096153;28;20193;-88
2023/07/01 10:53:58;;;;;;;1657.03;999.90;;;19.50;99.90;;;;;;5095165;28;20203;-86
2023/07/01 10:56:24;;;;;;;1676.33;999.90;;;19.50;99.90;;;;;;5096567;28;20557;-86
2023/07/01 10:59:22;;;;;;;1667.07;999.90;;;19.30;99.90;;;;;;5095883;28;20181;-87
2023/07/01 11:01:56;;;;;;;1667.83;999.90;;;19.30;99.90;;;;;;5096081;28;20203;-86
2023/07/01 11:04:22;;;;;;;1999.90;999.90;;;19.10;99.90;;;;;;5095939;28;20200;-86
2023/07/01 11:06:55;;;;;;;1999.90;999.90;;;19.00;99.90;;;;;;5097071;28;20200;-86
2023/07/01 11:09:32;;;;;;;1999.90;999.90;;;18.90;99.90;;;;;;5095669;28;20172;-87
2023/07/01 11:12:00;;;;;;;1999.90;999.90;;;18.80;99.90;;;;;;5096751;28;20206;-86
2023/07/01 11:14:38;;;;;;;1999.90;999.90;;;18.70;99.90;;;;;;5096416;28;20173;-85
2023/07/01 11:17:17;;;;;;;1999.90;999.90;;;18.70;99.90;;;;;;5096388;28;20575;-85
2023/07/01 11:19:46;;;;;;;1999.90;999.90;;;18.60;99.90;;;;;;5090015;28;20275;-85
2023/07/01 11:22:14;;;;;;;1999.90;999.90;;;18.70;99.90;;;;;;5076030;28;20185;-85
2023/07/01 11:24:40;;;;;;;1999.90;999.90;;;18.70;99.90;;;;;;5074632;28;20601;-85
2023/07/01 11:27:08;;;;;;;1999.90;999.90;;;18.70;99.90;;;;;;5092801;28;20211;-85
2023/07/01 11:29:34;;;;;;;1999.90;999.90;;;18.80;99.90;;;;;;5093183;28;20181;-85
2023/07/01 11:32:02;;;;;;;1999.90;999.90;;;18.90;99.90;;;;;;5093594;28;20192;-86
2023/07/01 11:34:28;;;;;;;1999.90;999.90;;;19.00;99.90;;;;;;5093263;28;20169;-86
2023/07/01 11:36:55;;;;;;;1999.90;999.90;;;19.00;99.90;;;;;;5075047;28;20351;-85
2023/07/01 11:39:22;;;;;;;1999.90;999.90;;;19.10;99.90;;;;;;5059086;28;20196;-86
2023/07/01 11:41:55;;;;;;;1999.90;999.90;;;19.00;99.90;;;;;;5058603;28;20205;-86
2023/07/01 11:44:28;;;;;;;1999.90;999.90;;;19.00;99.90;;;;;;5093312;28;20178;-86
2023/07/01 11:46:54;;;;;;;1999.90;999.90;;;19.00;99.90;;;;;;5072650;28;20212;-85
2023/07/01 11:49:25;;;;;;;1999.90;999.90;;;19.10;99.90;;;;;;5075019;28;20523;-86
2023/07/01 11:51:56;;;;;;;1999.90;999.90;;;19.20;99.90;;;;;;5074920;28;20204;-86
2023/07/01 11:54:45;;;;;;;1999.90;999.90;;;19.20;99.90;;;;;;5058648;28;20314;-87
2023/07/01 11:57:21;;;;;;;1999.90;999.90;;;19.30;99.90;;;;;;5093573;28;20186;-87
2023/07/01 11:59:52;;;;;;;1999.90;999.90;;;19.40;99.90;;;;;;5089539;28;20237;-86
2023/07/01 12:02:29;;;;;;;1999.90;999.90;;;19.40;99.90;;;;;;5080198;28;20173;-86
2023/07/01 12:04:55;;;;;;;1999.90;999.90;;;19.50;99.90;;;;;;5075108;28;20181;-87
2023/07/01 12:07:21;;;;;;;1381.50;999.90;;;19.70;99.90;;;;;;5061076;28;20219;-86
2023/07/01 12:09:46;;;;;;;1366.73;999.90;;;19.70;99.90;;;;;;5086692;28;20190;-87
2023/07/01 12:12:15;;;;;;;1353.50;999.90;;;19.80;99.90;;;;;;5075940;28;20189;-86
2023/07/01 12:14:41;;;;;;;1349.73;999.90;;;20.00;99.90;;;;;;5096882;28;20191;-87
2023/07/01 12:17:08;;;;;;;1305.77;999.90;;;20.20;99.90;;;;;;5079330;28;20211;-86
2023/07/01 12:19:34;;;;;;;1254.67;999.90;;;20.30;99.90;;;;;;5082184;28;20180;-87
2023/07/01 12:22:00;;;;;;;1230.07;999.90;;;20.30;99.90;;;;;;5097698;28;20566;-87
2023/07/01 12:24:29;;;;;;;1163.93;999.90;;;20.50;99.90;;;;;;5097728;28;20180;-86